Grover Beach, CA (93433)

12:57 PDT le 21 octobre 2014 (GMT -0700)
Sierra Drive and Hillcrest | Change Station
CLOSE
Current Station
Stations météorologiques personnelles
Location: Arroyo Grande, CA
Altitude: 249 ft
Stations météo à proximité
Avis météorologiques actifs: High Surf Advisory

Alt. 249 ft 35.13 °N, 120.60 °W | Updated 2 minutes ago

Partiellement nuageux
Partiellement nuageux
76.3 ° F
Paraît 78 ° F
N
9.9
Vent Variable Vent de NNE

Aujourd'hui
Haut(e) -- | Bas -- ° F
--% Risque de précip.
Hier
Haut(e) -- | Bas -- ° F
Precip. -- pouce
7:13 AM 6:19 PM
Lune descendante, 4% visible
Pression 29.98 pouce
Visibilité 10.0 Miles terrestres
Nuages Ciel dégagé
indice de chaleur 78 ° F
Point de rosée 45 ° F
Humidité 33%
Précipitations 0.00 pouce
Profondeur de la couche neigeuse Non disponible.
UV 6 sur 12
Pollen 4.20 sur 12
Qualité de l'air Non disponible.
Flu Activity Sporadic
METAR KSBP 211856Z 00000KT 10SM CLR 23/04 A2998 RMK AO2 SLP151 T02280039

More Conditions Fewer Conditions

Pression 29.98 pouce
Visibilité 10.0 Miles terrestres
Nuages Ciel dégagé
indice de chaleur 78 ° F
Point de rosée 45 ° F
Humidité 33%
Précipitations 0.00 pouce
Profondeur de la couche neigeuse Non disponible.
UV 6 sur 12
Pollen 4.20 sur 12
Qualité de l'air Non disponible.
Flu Activity Sporadic
METAR KSBP 211856Z 00000KT 10SM CLR 23/04 A2998 RMK AO2 SLP151 T02280039

More Conditions Fewer Conditions

10-Day Weather Forecast

Almanac

Astronomie

Oct. 21, 2014 Lever Coucher
Temps réel 07:13 PDT 18:19 PDT
Crépuscule civil 06:47 PDT 18:45 PDT
Crépuscule nautique 06:18 PDT 19:15 PDT
Crépuscule astronomique 05:48 PDT 19:44 PDT
Lune 05:07 PDT 17:12 PDT
Durée de lumière visible 11h 57m
Longueur du jour
11h 06m
Tomorrow will be 2m 4s shorter.
Lune descendante, 4% of the Moon is Illuminated
Aujourd'hui
Lune descendante
Oct 23
Nouveau
Oct 30
Premier quartier
Nov 6
Pleine lune
Nov 14
Dernier quartier

Extrêmes aujourd'hui

State Highs State Lows

Community

WunderPhotos

Upload Photos

1,763,754 Photos téléchargées !

Nearby

Épaisseur de neige

Station Depth Altitude
Virginia Lakes Ridge 0 in 9200 ft
Leavitt Lake 0 in 9400 ft
Leavitt Meadows 0 in 7200 ft
Summit Meadow 1 in 9122 ft
Blue Lakes 0 in 8000 ft

Activité sismique

Ville Distance Mag. Time & Date
No recent earthquake activity has been reported nearby.
Minimum magnitude displayed is 2.5.

Températures des eaux côtières

Lieu Température
Aucun rapport de station

Stations météo à proximité